sensor_id;sensor_type;location;lat;lon;timestamp;temperature;humidity
2897;DHT22;1458;49.728;9.228;2023-02-28T00:01:14;-0.10;78.70
2897;DHT22;1458;49.728;9.228;2023-02-28T00:03:42;-0.20;79.10
2897;DHT22;1458;49.728;9.228;2023-02-28T00:06:09;-0.20;79.70
2897;DHT22;1458;49.728;9.228;2023-02-28T00:08:38;-0.40;79.90
2897;DHT22;1458;49.728;9.228;2023-02-28T00:11:07;-0.40;80.30
2897;DHT22;1458;49.728;9.228;2023-02-28T00:13:38;-0.30;80.60
2897;DHT22;1458;49.728;9.228;2023-02-28T00:16:09;-0.50;81.10
2897;DHT22;1458;49.728;9.228;2023-02-28T00:18:39;-0.30;81.10
2897;DHT22;1458;49.728;9.228;2023-02-28T00:21:07;-0.30;81.40
2897;DHT22;1458;49.728;9.228;2023-02-28T00:23:35;-0.60;81.70
2897;DHT22;1458;49.728;9.228;2023-02-28T00:26:04;-0.70;82.10
2897;DHT22;1458;49.728;9.228;2023-02-28T00:28:32;-0.60;83.00
2897;DHT22;1458;49.728;9.228;2023-02-28T00:30:59;-0.70;83.60
2897;DHT22;1458;49.728;9.228;2023-02-28T00:33:31;-0.60;83.90
2897;DHT22;1458;49.728;9.228;2023-02-28T00:36:07;-0.60;84.10
2897;DHT22;1458;49.728;9.228;2023-02-28T00:38:39;-0.50;83.80
2897;DHT22;1458;49.728;9.228;2023-02-28T00:41:09;-0.50;83.90
2897;DHT22;1458;49.728;9.228;2023-02-28T00:43:37;-0.70;83.80
2897;DHT22;1458;49.728;9.228;2023-02-28T00:46:05;-0.90;84.80
2897;DHT22;1458;49.728;9.228;2023-02-28T00:48:33;-1.00;86.20
2897;DHT22;1458;49.728;9.228;2023-02-28T00:51:01;-0.80;86.80
2897;DHT22;1458;49.728;9.228;2023-02-28T00:53:29;-0.70;85.20
2897;DHT22;1458;49.728;9.228;2023-02-28T00:55:58;-0.80;86.10
2897;DHT22;1458;49.728;9.228;2023-02-28T00:58:27;-0.80;86.30
2897;DHT22;1458;49.728;9.228;2023-02-28T01:00:54;-0.70;86.30
2897;DHT22;1458;49.728;9.228;2023-02-28T01:03:23;-0.70;85.30
2897;DHT22;1458;49.728;9.228;2023-02-28T01:05:50;-0.70;85.40
2897;DHT22;1458;49.728;9.228;2023-02-28T01:08:18;-0.70;86.00
2897;DHT22;1458;49.728;9.228;2023-02-28T01:10:48;-0.60;86.00
2897;DHT22;1458;49.728;9.228;2023-02-28T01:13:16;-0.60;85.50
2897;DHT22;1458;49.728;9.228;2023-02-28T01:15:48;-0.50;85.10
2897;DHT22;1458;49.728;9.228;2023-02-28T01:18:17;-0.70;85.30
2897;DHT22;1458;49.728;9.228;2023-02-28T01:20:44;-0.80;85.90
2897;DHT22;1458;49.728;9.228;2023-02-28T01:23:12;-0.80;86.50
2897;DHT22;1458;49.728;9.228;2023-02-28T01:25:39;-0.70;86.70
2897;DHT22;1458;49.728;9.228;2023-02-28T01:28:07;-0.60;85.70
2897;DHT22;1458;49.728;9.228;2023-02-28T01:30:35;-0.70;85.80
2897;DHT22;1458;49.728;9.228;2023-02-28T01:33:04;-0.80;86.10
2897;DHT22;1458;49.728;9.228;2023-02-28T01:35:32;-1.00;86.60
2897;DHT22;1458;49.728;9.228;2023-02-28T01:38:00;-1.10;88.20
2897;DHT22;1458;49.728;9.228;2023-02-28T01:40:27;-1.10;88.30
2897;DHT22;1458;49.728;9.228;2023-02-28T01:42:55;-1.00;88.70
2897;DHT22;1458;49.728;9.228;2023-02-28T01:45:25;-1.10;88.70
2897;DHT22;1458;49.728;9.228;2023-02-28T01:47:57;-1.20;89.10
2897;DHT22;1458;49.728;9.228;2023-02-28T01:50:29;-1.10;89.00
2897;DHT22;1458;49.728;9.228;2023-02-28T01:53:01;-1.30;89.30
2897;DHT22;1458;49.728;9.228;2023-02-28T01:55:33;-1.50;90.20
2897;DHT22;1458;49.728;9.228;2023-02-28T01:58:04;-1.60;90.90
2897;DHT22;1458;49.728;9.228;2023-02-28T02:00:32;-1.40;91.60
2897;DHT22;1458;49.728;9.228;2023-02-28T02:03:06;-1.40;91.50
2897;DHT22;1458;49.728;9.228;2023-02-28T02:05:38;-1.30;91.40
2897;DHT22;1458;49.728;9.228;2023-02-28T02:08:09;-1.10;91.20
2897;DHT22;1458;49.728;9.228;2023-02-28T02:10:41;-1.20;90.70
2897;DHT22;1458;49.728;9.228;2023-02-28T02:13:30;-1.20;90.90
2897;DHT22;1458;49.728;9.228;2023-02-28T02:16:15;-1.60;90.80
2897;DHT22;1458;49.728;9.228;2023-02-28T02:18:51;-1.70;91.80
2897;DHT22;1458;49.728;9.228;2023-02-28T02:21:53;-1.80;92.30
2897;DHT22;1458;49.728;9.228;2023-02-28T02:24:59;-1.80;93.90
2897;DHT22;1458;49.728;9.228;2023-02-28T02:27:55;-1.70;93.70
2897;DHT22;1458;49.728;9.228;2023-02-28T02:30:48;-1.60;93.80
2897;DHT22;1458;49.728;9.228;2023-02-28T02:37:06;-1.50;93.00
2897;DHT22;1458;49.728;9.228;2023-02-28T02:39:43;-1.40;93.00
2897;DHT22;1458;49.728;9.228;2023-02-28T02:42:17;-1.10;92.40
2897;DHT22;1458;49.728;9.228;2023-02-28T02:44:54;-1.30;91.90
2897;DHT22;1458;49.728;9.228;2023-02-28T02:47:28;-1.40;92.60
2897;DHT22;1458;49.728;9.228;2023-02-28T02:50:03;-1.30;92.60
2897;DHT22;1458;49.728;9.228;2023-02-28T02:52:37;-1.40;92.30
2897;DHT22;1458;49.728;9.228;2023-02-28T02:55:09;-1.30;92.70
2897;DHT22;1458;49.728;9.228;2023-02-28T02:57:44;-1.40;92.80
2897;DHT22;1458;49.728;9.228;2023-02-28T03:00:15;-1.30;92.80
2897;DHT22;1458;49.728;9.228;2023-02-28T03:02:46;-1.20;92.30
2897;DHT22;1458;49.728;9.228;2023-02-28T03:05:20;-1.30;92.30
2897;DHT22;1458;49.728;9.228;2023-02-28T03:07:52;-1.20;92.50
2897;DHT22;1458;49.728;9.228;2023-02-28T03:10:31;-1.30;92.40
2897;DHT22;1458;49.728;9.228;2023-02-28T03:16:32;-1.70;93.10
2897;DHT22;1458;49.728;9.228;2023-02-28T03:19:18;-2.10;93.20
2897;DHT22;1458;49.728;9.228;2023-02-28T03:22:14;-2.30;93.90
2897;DHT22;1458;49.728;9.228;2023-02-28T03:25:08;-2.50;95.40
2897;DHT22;1458;49.728;9.228;2023-02-28T03:27:40;-2.50;97.70
2897;DHT22;1458;49.728;9.228;2023-02-28T03:30:13;-2.60;99.60
2897;DHT22;1458;49.728;9.228;2023-02-28T03:32:47;-2.50;99.90
2897;DHT22;1458;49.728;9.228;2023-02-28T03:35:21;-2.30;99.90
2897;DHT22;1458;49.728;9.228;2023-02-28T03:37:54;-2.30;99.90
2897;DHT22;1458;49.728;9.228;2023-02-28T03:40:28;-2.40;99.90
2897;DHT22;1458;49.728;9.228;2023-02-28T03:43:04;-2.50;99.90
2897;DHT22;1458;49.728;9.228;2023-02-28T03:45:38;-2.50;99.90
2897;DHT22;1458;49.728;9.228;2023-02-28T03:48:10;-2.50;99.90
2897;DHT22;1458;49.728;9.228;2023-02-28T03:50:41;-2.70;99.90
2897;DHT22;1458;49.728;9.228;2023-02-28T03:53:15;-2.50;99.90
2897;DHT22;1458;49.728;9.228;2023-02-28T03:55:47;-2.40;99.90
2897;DHT22;1458;49.728;9.228;2023-02-28T03:58:21;-2.30;99.90
2897;DHT22;1458;49.728;9.228;2023-02-28T04:00:59;-2.30;99.90
2897;DHT22;1458;49.728;9.228;2023-02-28T04:03:34;-2.20;99.90
2897;DHT22;1458;49.728;9.228;2023-02-28T04:06:02;-2.30;99.90
2897;DHT22;1458;49.728;9.228;2023-02-28T04:08:31;-2.40;99.90
2897;DHT22;1458;49.728;9.228;2023-02-28T04:11:01;-2.50;99.90
2897;DHT22;1458;49.728;9.228;2023-02-28T04:13:31;-2.60;99.90
2897;DHT22;1458;49.728;9.228;2023-02-28T04:15:59;-2.50;99.90
2897;DHT22;1458;49.728;9.228;2023-02-28T04:18:26;-2.40;99.90
2897;DHT22;1458;49.728;9.228;2023-02-28T04:20:53;-2.50;99.90
2897;DHT22;1458;49.728;9.228;2023-02-28T04:23:21;-2.40;99.90
2897;DHT22;1458;49.728;9.228;2023-02-28T04:25:49;-2.30;99.90
2897;DHT22;1458;49.728;9.228;2023-02-28T04:28:17;-2.10;99.90
2897;DHT22;1458;49.728;9.228;2023-02-28T04:30:44;-2.00;99.90
2897;DHT22;1458;49.728;9.228;2023-02-28T04:33:12;-2.20;99.90
2897;DHT22;1458;49.728;9.228;2023-02-28T04:35:39;-2.40;99.90
2897;DHT22;1458;49.728;9.228;2023-02-28T04:38:06;-2.60;99.90
2897;DHT22;1458;49.728;9.228;2023-02-28T04:40:34;-2.80;99.90
2897;DHT22;1458;49.728;9.228;2023-02-28T04:43:06;-2.90;99.90
2897;DHT22;1458;49.728;9.228;2023-02-28T04:45:34;-2.40;99.90
2897;DHT22;1458;49.728;9.228;2023-02-28T04:48:02;-2.30;99.90
2897;DHT22;1458;49.728;9.228;2023-02-28T04:50:29;-2.30;99.90
2897;DHT22;1458;49.728;9.228;2023-02-28T04:52:56;-2.40;99.90
2897;DHT22;1458;49.728;9.228;2023-02-28T04:55:24;-2.70;99.90
2897;DHT22;1458;49.728;9.228;2023-02-28T04:57:51;-2.80;99.90
2897;DHT22;1458;49.728;9.228;2023-02-28T05:00:21;-2.90;99.90
2897;DHT22;1458;49.728;9.228;2023-02-28T05:02:48;-2.80;99.90
2897;DHT22;1458;49.728;9.228;2023-02-28T05:05:15;-2.60;99.90
2897;DHT22;1458;49.728;9.228;2023-02-28T05:07:44;-2.50;99.90
2897;DHT22;1458;49.728;9.228;2023-02-28T05:10:11;-2.30;99.90
2897;DHT22;1458;49.728;9.228;2023-02-28T05:12:39;-2.30;99.90
2897;DHT22;1458;49.728;9.228;2023-02-28T05:15:07;-2.40;99.90
2897;DHT22;1458;49.728;9.228;2023-02-28T05:17:38;-2.50;99.90
2897;DHT22;1458;49.728;9.228;2023-02-28T05:20:06;-2.40;99.90
2897;DHT22;1458;49.728;9.228;2023-02-28T05:22:36;-2.30;99.90
2897;DHT22;1458;49.728;9.228;2023-02-28T05:25:04;-2.40;99.90
2897;DHT22;1458;49.728;9.228;2023-02-28T05:27:32;-2.40;99.90
2897;DHT22;1458;49.728;9.228;2023-02-28T05:29:59;-2.60;99.90
2897;DHT22;1458;49.728;9.228;2023-02-28T05:32:29;-2.60;99.90
2897;DHT22;1458;49.728;9.228;2023-02-28T05:34:57;-2.40;99.90
2897;DHT22;1458;49.728;9.228;2023-02-28T05:37:25;-2.60;99.90
2897;DHT22;1458;49.728;9.228;2023-02-28T05:39:52;-2.70;99.90
2897;DHT22;1458;49.728;9.228;2023-02-28T05:42:19;-2.70;99.90
2897;DHT22;1458;49.728;9.228;2023-02-28T05:44:47;-2.80;99.90
2897;DHT22;1458;49.728;9.228;2023-02-28T05:47:14;-2.60;99.90
2897;DHT22;1458;49.728;9.228;2023-02-28T05:49:45;-2.30;99.90
2897;DHT22;1458;49.728;9.228;2023-02-28T05:52:14;-2.20;99.90
2897;DHT22;1458;49.728;9.228;2023-02-28T05:54:42;-2.20;99.90
2897;DHT22;1458;49.728;9.228;2023-02-28T05:57:09;-2.30;99.90
2897;DHT22;1458;49.728;9.228;2023-02-28T05:59:36;-2.50;99.90
2897;DHT22;1458;49.728;9.228;2023-02-28T06:02:06;-2.40;99.90
2897;DHT22;1458;49.728;9.228;2023-02-28T06:04:35;-2.40;99.90
2897;DHT22;1458;49.728;9.228;2023-02-28T06:07:03;-2.40;99.90
2897;DHT22;1458;49.728;9.228;2023-02-28T06:09:31;-2.50;99.90
2897;DHT22;1458;49.728;9.228;2023-02-28T06:11:59;-2.40;99.90
2897;DHT22;1458;49.728;9.228;2023-02-28T06:14:28;-2.30;99.90
2897;DHT22;1458;49.728;9.228;2023-02-28T06:16:56;-2.20;99.90
2897;DHT22;1458;49.728;9.228;2023-02-28T06:19:24;-2.40;99.90
2897;DHT22;1458;49.728;9.228;2023-02-28T06:21:52;-2.50;99.90
2897;DHT22;1458;49.728;9.228;2023-02-28T06:24:20;-2.60;99.90
2897;DHT22;1458;49.728;9.228;2023-02-28T06:26:50;-2.40;99.90
2897;DHT22;1458;49.728;9.228;2023-02-28T06:29:17;-2.20;99.90
2897;DHT22;1458;49.728;9.228;2023-02-28T06:31:47;-2.30;99.90
2897;DHT22;1458;49.728;9.228;2023-02-28T06:34:15;-2.50;99.90
2897;DHT22;1458;49.728;9.228;2023-02-28T06:36:43;-2.50;99.90
2897;DHT22;1458;49.728;9.228;2023-02-28T06:39:10;-2.10;99.90
2897;DHT22;1458;49.728;9.228;2023-02-28T06:41:38;-2.20;99.90
2897;DHT22;1458;49.728;9.228;2023-02-28T06:44:11;-2.10;99.90
2897;DHT22;1458;49.728;9.228;2023-02-28T06:46:40;-1.90;99.90
2897;DHT22;1458;49.728;9.228;2023-02-28T06:49:08;-1.90;99.90
2897;DHT22;1458;49.728;9.228;2023-02-28T06:51:37;-2.10;99.90
2897;DHT22;1458;49.728;9.228;2023-02-28T06:54:07;-2.10;99.90
2897;DHT22;1458;49.728;9.228;2023-02-28T06:56:35;-1.90;99.90
2897;DHT22;1458;49.728;9.228;2023-02-28T06:59:02;-1.90;99.90
2897;DHT22;1458;49.728;9.228;2023-02-28T07:01:31;-1.70;99.90
2897;DHT22;1458;49.728;9.228;2023-02-28T07:04:00;-1.30;95.70
2897;DHT22;1458;49.728;9.228;2023-02-28T07:06:27;-1.20;95.30
2897;DHT22;1458;49.728;9.228;2023-02-28T07:08:55;-1.20;95.40
2897;DHT22;1458;49.728;9.228;2023-02-28T07:11:24;-1.10;93.30
2897;DHT22;1458;49.728;9.228;2023-02-28T07:13:53;-0.80;92.00
2897;DHT22;1458;49.728;9.228;2023-02-28T07:16:22;-0.70;90.50
2897;DHT22;1458;49.728;9.228;2023-02-28T07:18:52;-0.70;90.50
2897;DHT22;1458;49.728;9.228;2023-02-28T07:21:20;-0.80;90.30
2897;DHT22;1458;49.728;9.228;2023-02-28T07:23:49;-0.70;88.10
2897;DHT22;1458;49.728;9.228;2023-02-28T07:26:19;-0.60;87.80
2897;DHT22;1458;49.728;9.228;2023-02-28T07:28:48;-0.50;87.00
2897;DHT22;1458;49.728;9.228;2023-02-28T07:31:16;-0.50;86.50
2897;DHT22;1458;49.728;9.228;2023-02-28T07:33:44;-0.50;86.60
2897;DHT22;1458;49.728;9.228;2023-02-28T07:36:15;-0.40;85.60
2897;DHT22;1458;49.728;9.228;2023-02-28T07:38:45;-0.40;84.40
2897;DHT22;1458;49.728;9.228;2023-02-28T07:41:14;-0.20;83.50
2897;DHT22;1458;49.728;9.228;2023-02-28T07:44:19;-0.20;82.90
2897;DHT22;1458;49.728;9.228;2023-02-28T07:47:06;-0.30;82.90
2897;DHT22;1458;49.728;9.228;2023-02-28T07:49:35;-0.10;82.80
2897;DHT22;1458;49.728;9.228;2023-02-28T07:52:05;0.00;82.10
2897;DHT22;1458;49.728;9.228;2023-02-28T07:54:33;0.10;81.80
2897;DHT22;1458;49.728;9.228;2023-02-28T07:57:00;0.10;83.80
2897;DHT22;1458;49.728;9.228;2023-02-28T07:59:28;0.10;85.50
2897;DHT22;1458;49.728;9.228;2023-02-28T08:01:57;0.20;80.80
2897;DHT22;1458;49.728;9.228;2023-02-28T08:04:26;0.50;79.60
2897;DHT22;1458;49.728;9.228;2023-02-28T08:06:53;0.60;79.70
2897;DHT22;1458;49.728;9.228;2023-02-28T08:09:40;0.60;78.60
2897;DHT22;1458;49.728;9.228;2023-02-28T08:12:08;0.60;78.20
2897;DHT22;1458;49.728;9.228;2023-02-28T08:14:37;0.80;77.20
2897;DHT22;1458;49.728;9.228;2023-02-28T08:17:05;0.90;78.00
2897;DHT22;1458;49.728;9.228;2023-02-28T08:19:36;1.20;76.70
2897;DHT22;1458;49.728;9.228;2023-02-28T08:22:03;1.10;74.60
2897;DHT22;1458;49.728;9.228;2023-02-28T08:24:32;1.00;75.30
2897;DHT22;1458;49.728;9.228;2023-02-28T08:26:59;0.90;74.70
2897;DHT22;1458;49.728;9.228;2023-02-28T08:29:26;1.10;75.00
2897;DHT22;1458;49.728;9.228;2023-02-28T08:35:08;1.30;73.00
2897;DHT22;1458;49.728;9.228;2023-02-28T08:37:36;1.40;74.50
2897;DHT22;1458;49.728;9.228;2023-02-28T08:40:06;1.60;73.20
2897;DHT22;1458;49.728;9.228;2023-02-28T08:42:35;1.60;72.70
2897;DHT22;1458;49.728;9.228;2023-02-28T08:45:03;1.40;72.10
2897;DHT22;1458;49.728;9.228;2023-02-28T08:47:31;1.60;70.90
2897;DHT22;1458;49.728;9.228;2023-02-28T08:49:59;1.50;71.40
2897;DHT22;1458;49.728;9.228;2023-02-28T08:52:26;1.70;72.20
2897;DHT22;1458;49.728;9.228;2023-02-28T08:58:05;1.80;70.50
2897;DHT22;1458;49.728;9.228;2023-02-28T09:00:32;2.00;69.80
2897;DHT22;1458;49.728;9.228;2023-02-28T09:02:59;1.90;67.90
2897;DHT22;1458;49.728;9.228;2023-02-28T09:05:27;1.80;68.70
2897;DHT22;1458;49.728;9.228;2023-02-28T09:07:55;1.90;69.00
2897;DHT22;1458;49.728;9.228;2023-02-28T09:10:22;1.90;67.80
2897;DHT22;1458;49.728;9.228;2023-02-28T09:12:51;1.90;68.60
2897;DHT22;1458;49.728;9.228;2023-02-28T09:15:19;2.00;67.90
2897;DHT22;1458;49.728;9.228;2023-02-28T09:17:49;2.00;66.50
2897;DHT22;1458;49.728;9.228;2023-02-28T09:20:17;2.20;68.00
2897;DHT22;1458;49.728;9.228;2023-02-28T09:22:44;2.40;65.90
2897;DHT22;1458;49.728;9.228;2023-02-28T09:25:12;2.40;64.90
2897;DHT22;1458;49.728;9.228;2023-02-28T09:27:39;2.30;64.60
2897;DHT22;1458;49.728;9.228;2023-02-28T09:30:10;2.30;64.80
2897;DHT22;1458;49.728;9.228;2023-02-28T09:32:38;2.20;64.70
2897;DHT22;1458;49.728;9.228;2023-02-28T09:35:06;2.50;64.80
2897;DHT22;1458;49.728;9.228;2023-02-28T09:37:38;2.60;65.70
2897;DHT22;1458;49.728;9.228;2023-02-28T09:40:09;2.50;63.40
2897;DHT22;1458;49.728;9.228;2023-02-28T09:42:38;2.70;64.40
2897;DHT22;1458;49.728;9.228;2023-02-28T09:45:13;2.90;64.40
2897;DHT22;1458;49.728;9.228;2023-02-28T09:47:47;2.70;62.20
2897;DHT22;1458;49.728;9.228;2023-02-28T09:50:22;2.80;62.10
2897;DHT22;1458;49.728;9.228;2023-02-28T09:52:55;2.70;61.70
2897;DHT22;1458;49.728;9.228;2023-02-28T09:55:29;2.70;61.90
2897;DHT22;1458;49.728;9.228;2023-02-28T09:58:00;2.80;61.10
2897;DHT22;1458;49.728;9.228;2023-02-28T10:00:32;2.90;61.30
2897;DHT22;1458;49.728;9.228;2023-02-28T10:03:23;3.10;61.20
2897;DHT22;1458;49.728;9.228;2023-02-28T10:05:58;3.40;59.10
2897;DHT22;1458;49.728;9.228;2023-02-28T10:08:33;3.60;61.20
2897;DHT22;1458;49.728;9.228;2023-02-28T10:11:07;3.70;59.00
2897;DHT22;1458;49.728;9.228;2023-02-28T10:13:41;3.50;58.30
2897;DHT22;1458;49.728;9.228;2023-02-28T10:16:24;4.00;57.80
2897;DHT22;1458;49.728;9.228;2023-02-28T10:18:56;4.10;53.70
2897;DHT22;1458;49.728;9.228;2023-02-28T10:21:28;4.10;55.50
2897;DHT22;1458;49.728;9.228;2023-02-28T10:24:03;4.40;55.80
2897;DHT22;1458;49.728;9.228;2023-02-28T10:26:33;4.30;53.50
2897;DHT22;1458;49.728;9.228;2023-02-28T10:29:01;4.30;54.50
2897;DHT22;1458;49.728;9.228;2023-02-28T10:31:30;4.40;52.80
2897;DHT22;1458;49.728;9.228;2023-02-28T10:33:57;4.30;53.20
2897;DHT22;1458;49.728;9.228;2023-02-28T10:36:25;4.10;52.00
2897;DHT22;1458;49.728;9.228;2023-02-28T10:38:52;4.10;54.00
2897;DHT22;1458;49.728;9.228;2023-02-28T10:41:29;4.20;51.80
2897;DHT22;1458;49.728;9.228;2023-02-28T10:44:14;4.40;53.50
2897;DHT22;1458;49.728;9.228;2023-02-28T10:46:46;4.60;51.00
2897;DHT22;1458;49.728;9.228;2023-02-28T10:49:20;4.80;52.00
2897;DHT22;1458;49.728;9.228;2023-02-28T10:51:51;5.00;51.90
2897;DHT22;1458;49.728;9.228;2023-02-28T10:54:23;5.00;51.10
2897;DHT22;1458;49.728;9.228;2023-02-28T10:57:16;4.50;49.20
2897;DHT22;1458;49.728;9.228;2023-02-28T10:59:45;4.60;50.30
2897;DHT22;1458;49.728;9.228;2023-02-28T11:02:35;4.50;49.20
2897;DHT22;1458;49.728;9.228;2023-02-28T11:05:23;4.70;51.10
2897;DHT22;1458;49.728;9.228;2023-02-28T11:07:55;5.00;53.10
2897;DHT22;1458;49.728;9.228;2023-02-28T11:10:26;5.40;51.20
2897;DHT22;1458;49.728;9.228;2023-02-28T11:12:56;5.10;47.70
2897;DHT22;1458;49.728;9.228;2023-02-28T11:15:27;5.10;48.20
2897;DHT22;1458;49.728;9.228;2023-02-28T11:18:00;4.90;48.20
2897;DHT22;1458;49.728;9.228;2023-02-28T11:20:32;5.20;51.90
2897;DHT22;1458;49.728;9.228;2023-02-28T11:23:03;5.40;49.00
2897;DHT22;1458;49.728;9.228;2023-02-28T11:25:33;5.30;48.10
2897;DHT22;1458;49.728;9.228;2023-02-28T11:28:02;5.40;47.00
2897;DHT22;1458;49.728;9.228;2023-02-28T11:30:36;5.00;48.40
2897;DHT22;1458;49.728;9.228;2023-02-28T11:33:37;5.10;47.60
2897;DHT22;1458;49.728;9.228;2023-02-28T11:36:11;4.70;47.90
2897;DHT22;1458;49.728;9.228;2023-02-28T11:38:40;4.50;49.10
2897;DHT22;1458;49.728;9.228;2023-02-28T11:41:20;4.60;49.20
2897;DHT22;1458;49.728;9.228;2023-02-28T11:44:07;4.60;49.80
2897;DHT22;1458;49.728;9.228;2023-02-28T11:46:45;4.40;49.00
2897;DHT22;1458;49.728;9.228;2023-02-28T11:49:27;4.50;48.40
2897;DHT22;1458;49.728;9.228;2023-02-28T11:52:02;4.60;47.90
2897;DHT22;1458;49.728;9.228;2023-02-28T11:54:58;4.40;49.10
2897;DHT22;1458;49.728;9.228;2023-02-28T11:57:35;4.40;49.60
2897;DHT22;1458;49.728;9.228;2023-02-28T12:00:24;4.40;48.00
2897;DHT22;1458;49.728;9.228;2023-02-28T12:03:08;4.30;49.00
2897;DHT22;1458;49.728;9.228;2023-02-28T12:05:45;4.30;49.00
2897;DHT22;1458;49.728;9.228;2023-02-28T12:08:25;4.20;49.50
2897;DHT22;1458;49.728;9.228;2023-02-28T12:11:05;4.30;48.90
2897;DHT22;1458;49.728;9.228;2023-02-28T12:13:46;4.30;49.00
2897;DHT22;1458;49.728;9.228;2023-02-28T12:19:19;4.60;47.20
2897;DHT22;1458;49.728;9.228;2023-02-28T12:22:11;5.10;49.30
2897;DHT22;1458;49.728;9.228;2023-02-28T12:27:49;5.20;47.10
2897;DHT22;1458;49.728;9.228;2023-02-28T12:30:22;4.90;47.20
2897;DHT22;1458;49.728;9.228;2023-02-28T12:32:55;4.60;48.50
2897;DHT22;1458;49.728;9.228;2023-02-28T12:35:28;4.50;47.50
2897;DHT22;1458;49.728;9.228;2023-02-28T12:38:07;4.40;48.00
2897;DHT22;1458;49.728;9.228;2023-02-28T12:40:43;4.40;48.50
2897;DHT22;1458;49.728;9.228;2023-02-28T12:43:15;4.20;49.00
2897;DHT22;1458;49.728;9.228;2023-02-28T12:45:46;4.00;49.80
2897;DHT22;1458;49.728;9.228;2023-02-28T12:48:20;4.00;50.60
2897;DHT22;1458;49.728;9.228;2023-02-28T12:50:51;3.70;48.80
2897;DHT22;1458;49.728;9.228;2023-02-28T12:53:25;3.70;48.50
2897;DHT22;1458;49.728;9.228;2023-02-28T12:56:08;3.60;49.20
2897;DHT22;1458;49.728;9.228;2023-02-28T12:58:44;3.60;50.20
2897;DHT22;1458;49.728;9.228;2023-02-28T13:01:55;3.60;51.00
2897;DHT22;1458;49.728;9.228;2023-02-28T13:04:57;4.00;52.80
2897;DHT22;1458;49.728;9.228;2023-02-28T13:08:04;4.10;49.50
2897;DHT22;1458;49.728;9.228;2023-02-28T13:10:49;4.30;49.00
2897;DHT22;1458;49.728;9.228;2023-02-28T13:13:22;4.30;47.90
2897;DHT22;1458;49.728;9.228;2023-02-28T13:15:59;4.20;47.60
2897;DHT22;1458;49.728;9.228;2023-02-28T13:18:31;4.30;47.80
2897;DHT22;1458;49.728;9.228;2023-02-28T13:21:02;4.40;46.90
2897;DHT22;1458;49.728;9.228;2023-02-28T13:23:39;4.40;48.30
2897;DHT22;1458;49.728;9.228;2023-02-28T13:26:09;4.40;48.00
2897;DHT22;1458;49.728;9.228;2023-02-28T13:29:21;4.30;49.00
2897;DHT22;1458;49.728;9.228;2023-02-28T13:32:19;4.30;48.90
2897;DHT22;1458;49.728;9.228;2023-02-28T13:38:32;4.30;48.00
2897;DHT22;1458;49.728;9.228;2023-02-28T13:44:16;4.40;48.10
2897;DHT22;1458;49.728;9.228;2023-02-28T13:47:19;4.60;47.80
2897;DHT22;1458;49.728;9.228;2023-02-28T13:49:51;4.60;46.90
2897;DHT22;1458;49.728;9.228;2023-02-28T13:52:22;4.60;46.90
2897;DHT22;1458;49.728;9.228;2023-02-28T13:54:59;4.70;47.60
2897;DHT22;1458;49.728;9.228;2023-02-28T13:57:52;4.50;48.50
2897;DHT22;1458;49.728;9.228;2023-02-28T14:00:39;4.80;48.70
2897;DHT22;1458;49.728;9.228;2023-02-28T14:03:27;4.70;46.80
2897;DHT22;1458;49.728;9.228;2023-02-28T14:06:15;4.80;48.60
2897;DHT22;1458;49.728;9.228;2023-02-28T14:08:54;4.80;49.10
2897;DHT22;1458;49.728;9.228;2023-02-28T14:11:33;5.00;49.40
2897;DHT22;1458;49.728;9.228;2023-02-28T14:14:04;5.10;48.20
2897;DHT22;1458;49.728;9.228;2023-02-28T14:16:40;5.10;48.10
2897;DHT22;1458;49.728;9.228;2023-02-28T14:19:12;5.00;47.20
2897;DHT22;1458;49.728;9.228;2023-02-28T14:21:56;5.00;49.40
2897;DHT22;1458;49.728;9.228;2023-02-28T14:24:59;5.00;49.00
2897;DHT22;1458;49.728;9.228;2023-02-28T14:27:40;5.10;47.30
2897;DHT22;1458;49.728;9.228;2023-02-28T14:33:27;5.00;50.40
2897;DHT22;1458;49.728;9.228;2023-02-28T14:36:06;5.00;47.90
2897;DHT22;1458;49.728;9.228;2023-02-28T14:38:42;5.20;47.30
2897;DHT22;1458;49.728;9.228;2023-02-28T14:41:17;5.20;46.00
2897;DHT22;1458;49.728;9.228;2023-02-28T14:43:50;5.20;47.40
2897;DHT22;1458;49.728;9.228;2023-02-28T14:46:20;5.10;45.70
2897;DHT22;1458;49.728;9.228;2023-02-28T14:48:49;5.10;46.10
2897;DHT22;1458;49.728;9.228;2023-02-28T14:51:22;5.10;46.70
2897;DHT22;1458;49.728;9.228;2023-02-28T14:53:56;5.10;44.70
2897;DHT22;1458;49.728;9.228;2023-02-28T14:56:30;5.20;47.10
2897;DHT22;1458;49.728;9.228;2023-02-28T14:59:01;5.20;45.10
2897;DHT22;1458;49.728;9.228;2023-02-28T15:01:31;5.10;45.10
2897;DHT22;1458;49.728;9.228;2023-02-28T15:04:01;5.10;45.00
2897;DHT22;1458;49.728;9.228;2023-02-28T15:06:30;5.30;45.20
2897;DHT22;1458;49.728;9.228;2023-02-28T15:09:09;5.20;44.00
2897;DHT22;1458;49.728;9.228;2023-02-28T15:11:39;5.20;47.50
2897;DHT22;1458;49.728;9.228;2023-02-28T15:14:12;5.10;46.30
2897;DHT22;1458;49.728;9.228;2023-02-28T15:16:44;5.10;44.20
2897;DHT22;1458;49.728;9.228;2023-02-28T15:19:19;5.10;45.00
2897;DHT22;1458;49.728;9.228;2023-02-28T15:21:50;5.00;45.20
2897;DHT22;1458;49.728;9.228;2023-02-28T15:24:30;5.10;46.50
2897;DHT22;1458;49.728;9.228;2023-02-28T15:27:06;5.20;44.90
2897;DHT22;1458;49.728;9.228;2023-02-28T15:29:43;5.40;44.90
2897;DHT22;1458;49.728;9.228;2023-02-28T15:32:28;5.20;44.40
2897;DHT22;1458;49.728;9.228;2023-02-28T15:34:57;5.20;44.90
2897;DHT22;1458;49.728;9.228;2023-02-28T15:37:38;5.40;44.80
2897;DHT22;1458;49.728;9.228;2023-02-28T15:40:16;5.30;44.20
2897;DHT22;1458;49.728;9.228;2023-02-28T15:42:59;5.30;46.10
2897;DHT22;1458;49.728;9.228;2023-02-28T15:45:37;5.30;44.20
2897;DHT22;1458;49.728;9.228;2023-02-28T15:48:19;5.20;44.80
2897;DHT22;1458;49.728;9.228;2023-02-28T15:50:50;5.30;45.30
2897;DHT22;1458;49.728;9.228;2023-02-28T15:53:22;5.40;45.00
2897;DHT22;1458;49.728;9.228;2023-02-28T15:56:14;5.40;44.70
2897;DHT22;1458;49.728;9.228;2023-02-28T15:58:47;5.40;45.10
2897;DHT22;1458;49.728;9.228;2023-02-28T16:01:23;5.30;45.50
2897;DHT22;1458;49.728;9.228;2023-02-28T16:03:54;5.40;45.20
2897;DHT22;1458;49.728;9.228;2023-02-28T16:06:37;5.50;45.10
2897;DHT22;1458;49.728;9.228;2023-02-28T16:09:10;5.50;46.30
2897;DHT22;1458;49.728;9.228;2023-02-28T16:11:43;5.40;44.50
2897;DHT22;1458;49.728;9.228;2023-02-28T16:14:15;5.30;45.60
2897;DHT22;1458;49.728;9.228;2023-02-28T16:16:46;5.30;46.30
2897;DHT22;1458;49.728;9.228;2023-02-28T16:19:16;5.30;45.40
2897;DHT22;1458;49.728;9.228;2023-02-28T16:21:43;5.20;45.60
2897;DHT22;1458;49.728;9.228;2023-02-28T16:24:11;5.10;46.00
2897;DHT22;1458;49.728;9.228;2023-02-28T16:26:40;5.00;45.70
2897;DHT22;1458;49.728;9.228;2023-02-28T16:29:10;4.90;46.00
2897;DHT22;1458;49.728;9.228;2023-02-28T16:31:41;4.90;47.20
2897;DHT22;1458;49.728;9.228;2023-02-28T16:34:08;4.80;47.10
2897;DHT22;1458;49.728;9.228;2023-02-28T16:36:37;4.80;47.60
2897;DHT22;1458;49.728;9.228;2023-02-28T16:39:04;4.80;47.80
2897;DHT22;1458;49.728;9.228;2023-02-28T16:41:34;4.70;48.70
2897;DHT22;1458;49.728;9.228;2023-02-28T16:44:01;4.60;49.30
2897;DHT22;1458;49.728;9.228;2023-02-28T16:46:33;4.50;49.90
2897;DHT22;1458;49.728;9.228;2023-02-28T16:49:02;4.50;49.60
2897;DHT22;1458;49.728;9.228;2023-02-28T16:51:29;4.40;49.40
2897;DHT22;1458;49.728;9.228;2023-02-28T16:53:58;4.40;50.90
2897;DHT22;1458;49.728;9.228;2023-02-28T16:56:26;4.20;51.20
2897;DHT22;1458;49.728;9.228;2023-02-28T16:58:57;4.10;51.60
2897;DHT22;1458;49.728;9.228;2023-02-28T17:01:27;3.90;52.70
2897;DHT22;1458;49.728;9.228;2023-02-28T17:03:54;3.80;54.30
2897;DHT22;1458;49.728;9.228;2023-02-28T17:06:24;3.70;56.20
2897;DHT22;1458;49.728;9.228;2023-02-28T17:08:54;3.70;55.00
2897;DHT22;1458;49.728;9.228;2023-02-28T17:11:24;3.60;55.80
2897;DHT22;1458;49.728;9.228;2023-02-28T17:13:52;3.40;57.40
2897;DHT22;1458;49.728;9.228;2023-02-28T17:16:25;3.20;58.40